sensor_id;sensor_type;location;lat;lon;timestamp;P1;durP1;ratioP1;P2;durP2;ratioP2
68989;SDS011;56046;47.270;11.368;2023-04-25T00:02:06;2.50;;;1.50;;
68989;SDS011;56046;47.270;11.368;2023-04-25T00:04:32;3.90;;;1.83;;
68989;SDS011;56046;47.270;11.368;2023-04-25T00:06:58;2.80;;;1.40;;
68989;SDS011;56046;47.270;11.368;2023-04-25T00:09:26;3.72;;;1.58;;
68989;SDS011;56046;47.270;11.368;2023-04-25T00:11:52;2.47;;;1.30;;
68989;SDS011;56046;47.270;11.368;2023-04-25T00:14:17;4.60;;;1.70;;
68989;SDS011;56046;47.270;11.368;2023-04-25T00:16:42;4.05;;;1.60;;
68989;SDS011;56046;47.270;11.368;2023-04-25T00:19:08;4.57;;;1.38;;
68989;SDS011;56046;47.270;11.368;2023-04-25T00:21:34;4.03;;;1.40;;
68989;SDS011;56046;47.270;11.368;2023-04-25T00:24:00;2.77;;;1.50;;
68989;SDS011;56046;47.270;11.368;2023-04-25T00:26:26;3.40;;;1.45;;
68989;SDS011;56046;47.270;11.368;2023-04-25T00:28:52;3.35;;;1.50;;
68989;SDS011;56046;47.270;11.368;2023-04-25T00:31:17;4.20;;;1.60;;
68989;SDS011;56046;47.270;11.368;2023-04-25T00:33:42;3.90;;;1.47;;
68989;SDS011;56046;47.270;11.368;2023-04-25T00:36:07;3.93;;;1.60;;
68989;SDS011;56046;47.270;11.368;2023-04-25T00:38:33;4.50;;;1.73;;
68989;SDS011;56046;47.270;11.368;2023-04-25T00:40:58;3.83;;;1.60;;
68989;SDS011;56046;47.270;11.368;2023-04-25T00:43:27;3.37;;;1.33;;
68989;SDS011;56046;47.270;11.368;2023-04-25T00:45:52;3.50;;;1.75;;
68989;SDS011;56046;47.270;11.368;2023-04-25T00:48:18;3.67;;;1.73;;
68989;SDS011;56046;47.270;11.368;2023-04-25T00:50:47;3.22;;;1.60;;
68989;SDS011;56046;47.270;11.368;2023-04-25T00:53:14;3.03;;;1.65;;
68989;SDS011;56046;47.270;11.368;2023-04-25T00:55:40;2.10;;;1.20;;
68989;SDS011;56046;47.270;11.368;2023-04-25T00:58:05;3.63;;;1.40;;
68989;SDS011;56046;47.270;11.368;2023-04-25T01:00:30;3.43;;;1.43;;
68989;SDS011;56046;47.270;11.368;2023-04-25T01:02:56;4.37;;;1.80;;
68989;SDS011;56046;47.270;11.368;2023-04-25T01:05:21;2.63;;;1.50;;
68989;SDS011;56046;47.270;11.368;2023-04-25T01:07:46;3.77;;;1.83;;
68989;SDS011;56046;47.270;11.368;2023-04-25T01:10:12;4.57;;;1.70;;
68989;SDS011;56046;47.270;11.368;2023-04-25T01:12:37;3.33;;;2.03;;
68989;SDS011;56046;47.270;11.368;2023-04-25T01:15:03;3.70;;;2.00;;
68989;SDS011;56046;47.270;11.368;2023-04-25T01:17:28;3.20;;;1.63;;
68989;SDS011;56046;47.270;11.368;2023-04-25T01:19:54;3.77;;;1.77;;
68989;SDS011;56046;47.270;11.368;2023-04-25T01:22:19;3.88;;;1.85;;
68989;SDS011;56046;47.270;11.368;2023-04-25T01:24:45;4.20;;;1.90;;
68989;SDS011;56046;47.270;11.368;2023-04-25T01:27:11;3.57;;;1.80;;
68989;SDS011;56046;47.270;11.368;2023-04-25T01:29:36;3.17;;;1.80;;
68989;SDS011;56046;47.270;11.368;2023-04-25T01:32:02;5.50;;;2.00;;
68989;SDS011;56046;47.270;11.368;2023-04-25T01:34:28;3.58;;;1.90;;
68989;SDS011;56046;47.270;11.368;2023-04-25T01:36:53;5.47;;;2.00;;
68989;SDS011;56046;47.270;11.368;2023-04-25T01:39:19;4.60;;;1.90;;
68989;SDS011;56046;47.270;11.368;2023-04-25T01:41:45;4.60;;;2.10;;
68989;SDS011;56046;47.270;11.368;2023-04-25T01:44:10;5.43;;;2.30;;
68989;SDS011;56046;47.270;11.368;2023-04-25T01:46:35;5.40;;;2.03;;
68989;SDS011;56046;47.270;11.368;2023-04-25T01:49:01;4.17;;;2.00;;
68989;SDS011;56046;47.270;11.368;2023-04-25T01:51:27;3.35;;;1.80;;
68989;SDS011;56046;47.270;11.368;2023-04-25T01:53:52;3.57;;;1.67;;
68989;SDS011;56046;47.270;11.368;2023-04-25T01:56:18;5.80;;;1.93;;
68989;SDS011;56046;47.270;11.368;2023-04-25T01:58:43;2.92;;;1.70;;
68989;SDS011;56046;47.270;11.368;2023-04-25T02:01:08;3.97;;;1.60;;
68989;SDS011;56046;47.270;11.368;2023-04-25T02:03:34;3.90;;;1.87;;
68989;SDS011;56046;47.270;11.368;2023-04-25T02:05:59;3.60;;;1.83;;
68989;SDS011;56046;47.270;11.368;2023-04-25T02:08:25;3.22;;;1.90;;
68989;SDS011;56046;47.270;11.368;2023-04-25T02:10:51;3.87;;;1.70;;
68989;SDS011;56046;47.270;11.368;2023-04-25T02:13:17;4.28;;;1.63;;
68989;SDS011;56046;47.270;11.368;2023-04-25T02:15:42;2.27;;;1.40;;
68989;SDS011;56046;47.270;11.368;2023-04-25T02:18:07;3.80;;;1.70;;
68989;SDS011;56046;47.270;11.368;2023-04-25T02:20:32;2.67;;;1.43;;
68989;SDS011;56046;47.270;11.368;2023-04-25T02:22:58;3.27;;;1.60;;
68989;SDS011;56046;47.270;11.368;2023-04-25T02:25:23;4.93;;;1.83;;
68989;SDS011;56046;47.270;11.368;2023-04-25T02:27:48;4.80;;;1.97;;
68989;SDS011;56046;47.270;11.368;2023-04-25T02:30:14;3.50;;;1.60;;
68989;SDS011;56046;47.270;11.368;2023-04-25T02:32:40;5.75;;;1.80;;
68989;SDS011;56046;47.270;11.368;2023-04-25T02:35:05;3.40;;;1.83;;
68989;SDS011;56046;47.270;11.368;2023-04-25T02:37:31;4.38;;;2.00;;
68989;SDS011;56046;47.270;11.368;2023-04-25T02:39:57;4.05;;;1.95;;
68989;SDS011;56046;47.270;11.368;2023-04-25T02:42:22;4.93;;;1.80;;
68989;SDS011;56046;47.270;11.368;2023-04-25T02:44:47;3.63;;;1.45;;
68989;SDS011;56046;47.270;11.368;2023-04-25T02:47:13;5.43;;;2.10;;
68989;SDS011;56046;47.270;11.368;2023-04-25T02:49:38;5.47;;;2.00;;
68989;SDS011;56046;47.270;11.368;2023-04-25T02:52:04;5.07;;;2.00;;
68989;SDS011;56046;47.270;11.368;2023-04-25T02:54:29;3.80;;;1.87;;
68989;SDS011;56046;47.270;11.368;2023-04-25T02:56:55;4.25;;;1.70;;
68989;SDS011;56046;47.270;11.368;2023-04-25T02:59:20;4.73;;;2.13;;
68989;SDS011;56046;47.270;11.368;2023-04-25T03:01:45;5.33;;;2.23;;
68989;SDS011;56046;47.270;11.368;2023-04-25T03:04:11;4.43;;;2.07;;
68989;SDS011;56046;47.270;11.368;2023-04-25T03:06:36;4.17;;;2.37;;
68989;SDS011;56046;47.270;11.368;2023-04-25T03:09:01;5.47;;;2.27;;
68989;SDS011;56046;47.270;11.368;2023-04-25T03:11:26;4.73;;;2.00;;
68989;SDS011;56046;47.270;11.368;2023-04-25T03:13:52;3.70;;;1.90;;
68989;SDS011;56046;47.270;11.368;2023-04-25T03:16:17;3.13;;;1.80;;
68989;SDS011;56046;47.270;11.368;2023-04-25T03:18:42;3.72;;;1.85;;
68989;SDS011;56046;47.270;11.368;2023-04-25T03:21:08;4.63;;;1.95;;
68989;SDS011;56046;47.270;11.368;2023-04-25T03:23:33;3.63;;;1.60;;
68989;SDS011;56046;47.270;11.368;2023-04-25T03:25:58;4.57;;;2.20;;
68989;SDS011;56046;47.270;11.368;2023-04-25T03:28:24;4.47;;;1.83;;
68989;SDS011;56046;47.270;11.368;2023-04-25T03:30:49;3.83;;;1.60;;
68989;SDS011;56046;47.270;11.368;2023-04-25T03:33:14;4.70;;;1.80;;
68989;SDS011;56046;47.270;11.368;2023-04-25T03:35:39;4.13;;;1.93;;
68989;SDS011;56046;47.270;11.368;2023-04-25T03:38:05;3.43;;;1.50;;
68989;SDS011;56046;47.270;11.368;2023-04-25T03:40:30;4.03;;;1.80;;
68989;SDS011;56046;47.270;11.368;2023-04-25T03:42:55;3.60;;;1.70;;
68989;SDS011;56046;47.270;11.368;2023-04-25T03:45:21;4.60;;;1.98;;
68989;SDS011;56046;47.270;11.368;2023-04-25T03:47:46;5.77;;;1.90;;
68989;SDS011;56046;47.270;11.368;2023-04-25T03:50:11;3.70;;;1.73;;
68989;SDS011;56046;47.270;11.368;2023-04-25T03:52:36;3.63;;;1.70;;
68989;SDS011;56046;47.270;11.368;2023-04-25T03:55:02;4.37;;;1.80;;
68989;SDS011;56046;47.270;11.368;2023-04-25T03:57:27;3.83;;;2.10;;
68989;SDS011;56046;47.270;11.368;2023-04-25T03:59:52;5.27;;;2.50;;
68989;SDS011;56046;47.270;11.368;2023-04-25T04:02:17;7.33;;;2.50;;
68989;SDS011;56046;47.270;11.368;2023-04-25T04:04:43;6.63;;;1.80;;
68989;SDS011;56046;47.270;11.368;2023-04-25T04:07:09;5.20;;;2.40;;
68989;SDS011;56046;47.270;11.368;2023-04-25T04:09:35;5.20;;;2.60;;
68989;SDS011;56046;47.270;11.368;2023-04-25T04:12:00;3.28;;;1.60;;
68989;SDS011;56046;47.270;11.368;2023-04-25T04:14:26;3.17;;;1.50;;
68989;SDS011;56046;47.270;11.368;2023-04-25T04:16:52;4.78;;;2.00;;
68989;SDS011;56046;47.270;11.368;2023-04-25T04:19:17;4.63;;;2.00;;
68989;SDS011;56046;47.270;11.368;2023-04-25T04:21:42;4.07;;;2.03;;
68989;SDS011;56046;47.270;11.368;2023-04-25T04:24:08;5.43;;;2.00;;
68989;SDS011;56046;47.270;11.368;2023-04-25T04:26:33;4.30;;;2.00;;
68989;SDS011;56046;47.270;11.368;2023-04-25T04:28:59;4.50;;;2.20;;
68989;SDS011;56046;47.270;11.368;2023-04-25T04:31:25;3.40;;;1.80;;
68989;SDS011;56046;47.270;11.368;2023-04-25T04:33:50;4.63;;;2.40;;
68989;SDS011;56046;47.270;11.368;2023-04-25T04:36:16;4.60;;;2.13;;
68989;SDS011;56046;47.270;11.368;2023-04-25T04:38:44;5.13;;;1.90;;
68989;SDS011;56046;47.270;11.368;2023-04-25T04:41:10;4.83;;;2.20;;
68989;SDS011;56046;47.270;11.368;2023-04-25T04:43:35;4.43;;;2.33;;
68989;SDS011;56046;47.270;11.368;2023-04-25T04:46:01;5.10;;;2.40;;
68989;SDS011;56046;47.270;11.368;2023-04-25T04:48:28;5.43;;;2.40;;
68989;SDS011;56046;47.270;11.368;2023-04-25T04:50:53;3.83;;;2.10;;
68989;SDS011;56046;47.270;11.368;2023-04-25T04:53:18;5.43;;;2.40;;
68989;SDS011;56046;47.270;11.368;2023-04-25T04:55:44;4.17;;;2.27;;
68989;SDS011;56046;47.270;11.368;2023-04-25T04:58:09;4.70;;;2.10;;
68989;SDS011;56046;47.270;11.368;2023-04-25T05:00:34;5.13;;;2.20;;
68989;SDS011;56046;47.270;11.368;2023-04-25T05:03:00;4.10;;;1.97;;
68989;SDS011;56046;47.270;11.368;2023-04-25T05:05:25;4.23;;;1.90;;
68989;SDS011;56046;47.270;11.368;2023-04-25T05:07:51;5.75;;;2.47;;
68989;SDS011;56046;47.270;11.368;2023-04-25T05:10:16;5.43;;;2.00;;
68989;SDS011;56046;47.270;11.368;2023-04-25T05:12:42;4.60;;;2.60;;
68989;SDS011;56046;47.270;11.368;2023-04-25T05:15:07;5.27;;;2.60;;
68989;SDS011;56046;47.270;11.368;2023-04-25T05:17:33;5.17;;;2.87;;
68989;SDS011;56046;47.270;11.368;2023-04-25T05:19:58;6.03;;;2.40;;
68989;SDS011;56046;47.270;11.368;2023-04-25T05:22:23;5.23;;;2.70;;
68989;SDS011;56046;47.270;11.368;2023-04-25T05:24:49;7.87;;;2.97;;
68989;SDS011;56046;47.270;11.368;2023-04-25T05:27:16;6.07;;;3.17;;
68989;SDS011;56046;47.270;11.368;2023-04-25T05:29:42;6.20;;;3.30;;
68989;SDS011;56046;47.270;11.368;2023-04-25T05:32:07;6.27;;;3.30;;
68989;SDS011;56046;47.270;11.368;2023-04-25T05:34:33;6.33;;;3.17;;
68989;SDS011;56046;47.270;11.368;2023-04-25T05:36:58;7.78;;;3.20;;
68989;SDS011;56046;47.270;11.368;2023-04-25T05:39:23;6.47;;;3.20;;
68989;SDS011;56046;47.270;11.368;2023-04-25T05:41:49;5.65;;;3.13;;
68989;SDS011;56046;47.270;11.368;2023-04-25T05:44:14;5.97;;;3.20;;
68989;SDS011;56046;47.270;11.368;2023-04-25T05:46:40;7.03;;;3.57;;
68989;SDS011;56046;47.270;11.368;2023-04-25T05:49:06;6.47;;;3.15;;
68989;SDS011;56046;47.270;11.368;2023-04-25T05:51:31;6.50;;;3.20;;
68989;SDS011;56046;47.270;11.368;2023-04-25T05:53:57;6.47;;;3.20;;
68989;SDS011;56046;47.270;11.368;2023-04-25T05:56:22;6.43;;;3.17;;
68989;SDS011;56046;47.270;11.368;2023-04-25T05:58:48;6.00;;;3.23;;
68989;SDS011;56046;47.270;11.368;2023-04-25T06:01:13;5.93;;;3.30;;
68989;SDS011;56046;47.270;11.368;2023-04-25T06:03:39;5.67;;;2.83;;
68989;SDS011;56046;47.270;11.368;2023-04-25T06:06:07;4.65;;;2.38;;
68989;SDS011;56046;47.270;11.368;2023-04-25T06:08:33;4.50;;;2.43;;
68989;SDS011;56046;47.270;11.368;2023-04-25T06:10:58;5.00;;;2.63;;
68989;SDS011;56046;47.270;11.368;2023-04-25T06:13:23;5.50;;;2.40;;
68989;SDS011;56046;47.270;11.368;2023-04-25T06:15:48;4.87;;;2.90;;
68989;SDS011;56046;47.270;11.368;2023-04-25T06:18:14;4.73;;;2.97;;
68989;SDS011;56046;47.270;11.368;2023-04-25T06:20:39;5.63;;;2.60;;
68989;SDS011;56046;47.270;11.368;2023-04-25T06:23:04;5.25;;;2.00;;
68989;SDS011;56046;47.270;11.368;2023-04-25T06:25:30;4.47;;;2.43;;
68989;SDS011;56046;47.270;11.368;2023-04-25T06:27:55;6.00;;;2.57;;
68989;SDS011;56046;47.270;11.368;2023-04-25T06:30:20;5.40;;;2.20;;
68989;SDS011;56046;47.270;11.368;2023-04-25T06:32:49;4.22;;;1.98;;
68989;SDS011;56046;47.270;11.368;2023-04-25T06:35:15;3.23;;;2.00;;
68989;SDS011;56046;47.270;11.368;2023-04-25T06:37:40;3.47;;;2.10;;
68989;SDS011;56046;47.270;11.368;2023-04-25T06:40:05;3.07;;;1.90;;
68989;SDS011;56046;47.270;11.368;2023-04-25T06:42:31;4.03;;;2.20;;
68989;SDS011;56046;47.270;11.368;2023-04-25T06:44:56;3.30;;;1.80;;
68989;SDS011;56046;47.270;11.368;2023-04-25T06:47:21;2.83;;;1.40;;
68989;SDS011;56046;47.270;11.368;2023-04-25T06:49:46;3.97;;;1.70;;
68989;SDS011;56046;47.270;11.368;2023-04-25T06:52:12;2.73;;;1.50;;
68989;SDS011;56046;47.270;11.368;2023-04-25T06:54:37;3.72;;;1.42;;
68989;SDS011;56046;47.270;11.368;2023-04-25T06:57:02;2.67;;;1.60;;
68989;SDS011;56046;47.270;11.368;2023-04-25T06:59:28;2.57;;;1.47;;
68989;SDS011;56046;47.270;11.368;2023-04-25T07:01:53;2.63;;;1.60;;
68989;SDS011;56046;47.270;11.368;2023-04-25T07:04:18;4.13;;;1.60;;
68989;SDS011;56046;47.270;11.368;2023-04-25T07:06:44;2.50;;;1.73;;
68989;SDS011;56046;47.270;11.368;2023-04-25T07:09:09;2.47;;;1.70;;
68989;SDS011;56046;47.270;11.368;2023-04-25T07:11:35;3.87;;;1.90;;
68989;SDS011;56046;47.270;11.368;2023-04-25T07:14:01;3.83;;;2.13;;
68989;SDS011;56046;47.270;11.368;2023-04-25T07:16:26;4.10;;;2.00;;
68989;SDS011;56046;47.270;11.368;2023-04-25T07:18:51;3.13;;;1.73;;
68989;SDS011;56046;47.270;11.368;2023-04-25T07:21:16;3.40;;;2.10;;
68989;SDS011;56046;47.270;11.368;2023-04-25T07:23:42;2.70;;;1.70;;
68989;SDS011;56046;47.270;11.368;2023-04-25T07:26:07;2.30;;;1.30;;
68989;SDS011;56046;47.270;11.368;2023-04-25T07:28:33;2.53;;;1.50;;
68989;SDS011;56046;47.270;11.368;2023-04-25T07:30:58;3.43;;;1.80;;
68989;SDS011;56046;47.270;11.368;2023-04-25T07:33:23;2.20;;;1.50;;
68989;SDS011;56046;47.270;11.368;2023-04-25T07:35:49;2.73;;;1.40;;
68989;SDS011;56046;47.270;11.368;2023-04-25T07:38:15;3.20;;;1.50;;
68989;SDS011;56046;47.270;11.368;2023-04-25T07:40:40;2.57;;;1.40;;
68989;SDS011;56046;47.270;11.368;2023-04-25T07:43:05;3.27;;;1.57;;
68989;SDS011;56046;47.270;11.368;2023-04-25T07:45:30;2.20;;;1.53;;
68989;SDS011;56046;47.270;11.368;2023-04-25T07:47:56;3.43;;;1.50;;
68989;SDS011;56046;47.270;11.368;2023-04-25T07:50:21;2.83;;;1.43;;
68989;SDS011;56046;47.270;11.368;2023-04-25T07:52:46;3.47;;;1.60;;
68989;SDS011;56046;47.270;11.368;2023-04-25T07:55:11;2.45;;;1.50;;
68989;SDS011;56046;47.270;11.368;2023-04-25T07:57:37;2.43;;;1.20;;
68989;SDS011;56046;47.270;11.368;2023-04-25T08:00:03;2.00;;;1.07;;
68989;SDS011;56046;47.270;11.368;2023-04-25T08:02:29;2.47;;;1.58;;
68989;SDS011;56046;47.270;11.368;2023-04-25T08:04:55;2.67;;;1.40;;
68989;SDS011;56046;47.270;11.368;2023-04-25T08:07:20;5.03;;;2.00;;
68989;SDS011;56046;47.270;11.368;2023-04-25T08:09:45;3.57;;;1.80;;
68989;SDS011;56046;47.270;11.368;2023-04-25T08:12:11;4.50;;;1.70;;
68989;SDS011;56046;47.270;11.368;2023-04-25T08:14:36;2.60;;;1.60;;
68989;SDS011;56046;47.270;11.368;2023-04-25T08:17:03;3.40;;;1.37;;
68989;SDS011;56046;47.270;11.368;2023-04-25T08:19:28;3.17;;;1.40;;
68989;SDS011;56046;47.270;11.368;2023-04-25T08:21:54;3.78;;;2.00;;
68989;SDS011;56046;47.270;11.368;2023-04-25T08:24:20;2.95;;;1.80;;
68989;SDS011;56046;47.270;11.368;2023-04-25T08:26:46;4.37;;;1.90;;
68989;SDS011;56046;47.270;11.368;2023-04-25T08:29:11;3.43;;;2.00;;
68989;SDS011;56046;47.270;11.368;2023-04-25T08:31:37;3.43;;;1.50;;
68989;SDS011;56046;47.270;11.368;2023-04-25T08:34:02;2.87;;;1.70;;
68989;SDS011;56046;47.270;11.368;2023-04-25T08:36:27;3.20;;;1.53;;
68989;SDS011;56046;47.270;11.368;2023-04-25T08:38:53;2.53;;;1.70;;
68989;SDS011;56046;47.270;11.368;2023-04-25T08:41:18;4.23;;;1.30;;
68989;SDS011;56046;47.270;11.368;2023-04-25T08:43:45;3.00;;;1.45;;
68989;SDS011;56046;47.270;11.368;2023-04-25T08:46:13;2.85;;;1.50;;
68989;SDS011;56046;47.270;11.368;2023-04-25T08:48:42;2.15;;;1.20;;
68989;SDS011;56046;47.270;11.368;2023-04-25T08:51:07;2.80;;;1.60;;
68989;SDS011;56046;47.270;11.368;2023-04-25T08:53:33;3.35;;;1.40;;
68989;SDS011;56046;47.270;11.368;2023-04-25T08:56:00;3.13;;;1.30;;
68989;SDS011;56046;47.270;11.368;2023-04-25T08:58:26;2.38;;;1.50;;
68989;SDS011;56046;47.270;11.368;2023-04-25T09:00:52;2.67;;;1.50;;
68989;SDS011;56046;47.270;11.368;2023-04-25T09:03:17;4.32;;;1.40;;
68989;SDS011;56046;47.270;11.368;2023-04-25T09:05:43;2.53;;;1.30;;
68989;SDS011;56046;47.270;11.368;2023-04-25T09:08:08;3.07;;;1.30;;
68989;SDS011;56046;47.270;11.368;2023-04-25T09:10:34;2.75;;;1.25;;
68989;SDS011;56046;47.270;11.368;2023-04-25T09:15:28;2.90;;;1.35;;
68989;SDS011;56046;47.270;11.368;2023-04-25T09:17:57;2.70;;;1.60;;
68989;SDS011;56046;47.270;11.368;2023-04-25T09:20:22;3.20;;;1.30;;
68989;SDS011;56046;47.270;11.368;2023-04-25T09:22:47;3.00;;;1.30;;
68989;SDS011;56046;47.270;11.368;2023-04-25T09:25:13;3.40;;;1.40;;
68989;SDS011;56046;47.270;11.368;2023-04-25T09:27:50;2.30;;;1.50;;
68989;SDS011;56046;47.270;11.368;2023-04-25T09:30:19;2.85;;;1.58;;
68989;SDS011;56046;47.270;11.368;2023-04-25T09:32:56;2.97;;;1.63;;
68989;SDS011;56046;47.270;11.368;2023-04-25T09:35:24;3.80;;;1.50;;
68989;SDS011;56046;47.270;11.368;2023-04-25T09:37:51;2.38;;;1.35;;
68989;SDS011;56046;47.270;11.368;2023-04-25T09:40:17;3.13;;;1.20;;
68989;SDS011;56046;47.270;11.368;2023-04-25T09:42:42;5.55;;;1.67;;
68989;SDS011;56046;47.270;11.368;2023-04-25T09:45:08;3.83;;;1.53;;
68989;SDS011;56046;47.270;11.368;2023-04-25T09:47:37;3.50;;;1.75;;
68989;SDS011;56046;47.270;11.368;2023-04-25T09:50:03;3.42;;;1.70;;
68989;SDS011;56046;47.270;11.368;2023-04-25T09:52:38;3.20;;;1.80;;
68989;SDS011;56046;47.270;11.368;2023-04-25T09:55:03;3.30;;;2.00;;
68989;SDS011;56046;47.270;11.368;2023-04-25T09:57:29;2.97;;;1.90;;
68989;SDS011;56046;47.270;11.368;2023-04-25T09:59:55;4.27;;;2.17;;
68989;SDS011;56046;47.270;11.368;2023-04-25T10:02:24;4.47;;;2.38;;
68989;SDS011;56046;47.270;11.368;2023-04-25T10:04:51;4.53;;;2.10;;
68989;SDS011;56046;47.270;11.368;2023-04-25T10:07:19;4.97;;;2.15;;
68989;SDS011;56046;47.270;11.368;2023-04-25T10:09:49;3.77;;;2.23;;
68989;SDS011;56046;47.270;11.368;2023-04-25T10:12:16;4.32;;;2.30;;
68989;SDS011;56046;47.270;11.368;2023-04-25T10:14:41;3.95;;;2.30;;
68989;SDS011;56046;47.270;11.368;2023-04-25T10:17:07;4.07;;;2.47;;
68989;SDS011;56046;47.270;11.368;2023-04-25T10:19:34;3.90;;;2.45;;
68989;SDS011;56046;47.270;11.368;2023-04-25T10:24:25;4.87;;;1.97;;
68989;SDS011;56046;47.270;11.368;2023-04-25T10:26:50;4.63;;;2.70;;
68989;SDS011;56046;47.270;11.368;2023-04-25T10:29:22;5.83;;;2.40;;
68989;SDS011;56046;47.270;11.368;2023-04-25T10:31:48;4.82;;;2.30;;
68989;SDS011;56046;47.270;11.368;2023-04-25T10:34:16;5.05;;;2.67;;
68989;SDS011;56046;47.270;11.368;2023-04-25T10:36:41;4.40;;;2.20;;
68989;SDS011;56046;47.270;11.368;2023-04-25T10:39:07;3.28;;;1.90;;
68989;SDS011;56046;47.270;11.368;2023-04-25T10:44:32;6.43;;;2.08;;
68989;SDS011;56046;47.270;11.368;2023-04-25T10:46:59;4.37;;;2.10;;
68989;SDS011;56046;47.270;11.368;2023-04-25T10:54:40;4.30;;;2.20;;
68989;SDS011;56046;47.270;11.368;2023-04-25T10:57:05;6.57;;;1.90;;
68989;SDS011;56046;47.270;11.368;2023-04-25T10:59:30;4.17;;;2.20;;
68989;SDS011;56046;47.270;11.368;2023-04-25T11:01:56;4.30;;;1.77;;
68989;SDS011;56046;47.270;11.368;2023-04-25T11:04:31;3.43;;;1.80;;
68989;SDS011;56046;47.270;11.368;2023-04-25T11:09:24;2.60;;;1.50;;
68989;SDS011;56046;47.270;11.368;2023-04-25T11:11:56;3.13;;;1.70;;
68989;SDS011;56046;47.270;11.368;2023-04-25T11:14:22;6.63;;;1.90;;
68989;SDS011;56046;47.270;11.368;2023-04-25T11:16:47;2.40;;;1.50;;
68989;SDS011;56046;47.270;11.368;2023-04-25T11:19:12;3.20;;;1.17;;
68989;SDS011;56046;47.270;11.368;2023-04-25T11:21:38;3.90;;;1.73;;
68989;SDS011;56046;47.270;11.368;2023-04-25T11:24:03;3.10;;;1.57;;
68989;SDS011;56046;47.270;11.368;2023-04-25T11:26:29;4.03;;;1.53;;
68989;SDS011;56046;47.270;11.368;2023-04-25T11:28:58;6.28;;;1.80;;
68989;SDS011;56046;47.270;11.368;2023-04-25T11:31:28;4.15;;;1.90;;
68989;SDS011;56046;47.270;11.368;2023-04-25T11:33:53;3.93;;;1.80;;
68989;SDS011;56046;47.270;11.368;2023-04-25T11:36:20;3.55;;;1.95;;
68989;SDS011;56046;47.270;11.368;2023-04-25T11:38:45;4.47;;;1.67;;
68989;SDS011;56046;47.270;11.368;2023-04-25T11:41:10;3.07;;;1.47;;
68989;SDS011;56046;47.270;11.368;2023-04-25T11:43:36;3.13;;;1.65;;
68989;SDS011;56046;47.270;11.368;2023-04-25T11:46:06;2.73;;;1.20;;
68989;SDS011;56046;47.270;11.368;2023-04-25T11:48:36;2.67;;;1.10;;
68989;SDS011;56046;47.270;11.368;2023-04-25T11:51:01;2.25;;;1.10;;
68989;SDS011;56046;47.270;11.368;2023-04-25T11:53:26;2.23;;;1.20;;
68989;SDS011;56046;47.270;11.368;2023-04-25T11:55:53;3.28;;;1.20;;
68989;SDS011;56046;47.270;11.368;2023-04-25T11:58:18;1.60;;;0.90;;
68989;SDS011;56046;47.270;11.368;2023-04-25T12:00:44;1.60;;;1.00;;
68989;SDS011;56046;47.270;11.368;2023-04-25T12:03:09;2.00;;;1.03;;
68989;SDS011;56046;47.270;11.368;2023-04-25T12:05:35;1.80;;;1.03;;
68989;SDS011;56046;47.270;11.368;2023-04-25T12:08:10;3.63;;;0.90;;
68989;SDS011;56046;47.270;11.368;2023-04-25T12:10:37;1.92;;;1.02;;
68989;SDS011;56046;47.270;11.368;2023-04-25T12:13:17;1.65;;;0.80;;
68989;SDS011;56046;47.270;11.368;2023-04-25T12:15:42;1.88;;;0.93;;
68989;SDS011;56046;47.270;11.368;2023-04-25T12:18:07;3.13;;;1.00;;
68989;SDS011;56046;47.270;11.368;2023-04-25T12:20:32;1.53;;;1.00;;
68989;SDS011;56046;47.270;11.368;2023-04-25T12:22:58;1.73;;;1.02;;
68989;SDS011;56046;47.270;11.368;2023-04-25T12:25:40;1.30;;;0.90;;
68989;SDS011;56046;47.270;11.368;2023-04-25T12:28:21;2.63;;;0.93;;
68989;SDS011;56046;47.270;11.368;2023-04-25T12:30:56;2.90;;;1.15;;
68989;SDS011;56046;47.270;11.368;2023-04-25T12:33:22;1.92;;;1.20;;
68989;SDS011;56046;47.270;11.368;2023-04-25T12:35:47;4.40;;;1.30;;
68989;SDS011;56046;47.270;11.368;2023-04-25T12:38:26;4.53;;;1.30;;
68989;SDS011;56046;47.270;11.368;2023-04-25T12:40:52;2.10;;;1.10;;
68989;SDS011;56046;47.270;11.368;2023-04-25T12:43:17;7.53;;;1.10;;
68989;SDS011;56046;47.270;11.368;2023-04-25T12:45:43;2.30;;;1.00;;
68989;SDS011;56046;47.270;11.368;2023-04-25T12:48:08;2.23;;;1.17;;
68989;SDS011;56046;47.270;11.368;2023-04-25T12:50:33;2.53;;;1.60;;
68989;SDS011;56046;47.270;11.368;2023-04-25T12:52:59;1.60;;;1.00;;
68989;SDS011;56046;47.270;11.368;2023-04-25T12:55:24;3.43;;;1.20;;
68989;SDS011;56046;47.270;11.368;2023-04-25T12:57:50;3.83;;;1.10;;
68989;SDS011;56046;47.270;11.368;2023-04-25T13:00:16;2.57;;;1.30;;
68989;SDS011;56046;47.270;11.368;2023-04-25T13:02:43;1.80;;;1.20;;
68989;SDS011;56046;47.270;11.368;2023-04-25T13:05:08;2.27;;;1.00;;
68989;SDS011;56046;47.270;11.368;2023-04-25T13:07:34;2.33;;;0.97;;
68989;SDS011;56046;47.270;11.368;2023-04-25T13:09:59;1.75;;;0.90;;
68989;SDS011;56046;47.270;11.368;2023-04-25T13:12:25;2.20;;;1.10;;
68989;SDS011;56046;47.270;11.368;2023-04-25T13:14:50;1.57;;;1.00;;
68989;SDS011;56046;47.270;11.368;2023-04-25T13:17:16;2.17;;;1.00;;
68989;SDS011;56046;47.270;11.368;2023-04-25T13:19:41;2.70;;;0.90;;
68989;SDS011;56046;47.270;11.368;2023-04-25T13:22:06;2.60;;;1.00;;
68989;SDS011;56046;47.270;11.368;2023-04-25T13:24:32;1.77;;;0.90;;
68989;SDS011;56046;47.270;11.368;2023-04-25T13:26:57;2.20;;;1.10;;
68989;SDS011;56046;47.270;11.368;2023-04-25T13:29:22;2.03;;;1.23;;
68989;SDS011;56046;47.270;11.368;2023-04-25T13:31:48;1.40;;;0.90;;
68989;SDS011;56046;47.270;11.368;2023-04-25T13:34:13;1.20;;;0.77;;
68989;SDS011;56046;47.270;11.368;2023-04-25T13:36:38;1.10;;;0.80;;
68989;SDS011;56046;47.270;11.368;2023-04-25T13:39:03;1.07;;;0.90;;
68989;SDS011;56046;47.270;11.368;2023-04-25T13:41:32;1.20;;;1.00;;
68989;SDS011;56046;47.270;11.368;2023-04-25T13:43:57;2.70;;;0.90;;
68989;SDS011;56046;47.270;11.368;2023-04-25T13:46:22;1.57;;;0.90;;
68989;SDS011;56046;47.270;11.368;2023-04-25T13:48:48;1.53;;;0.90;;
68989;SDS011;56046;47.270;11.368;2023-04-25T13:51:14;2.70;;;0.63;;
68989;SDS011;56046;47.270;11.368;2023-04-25T13:53:40;1.40;;;0.88;;
68989;SDS011;56046;47.270;11.368;2023-04-25T13:56:05;1.20;;;0.63;;
68989;SDS011;56046;47.270;11.368;2023-04-25T13:58:31;1.10;;;0.80;;
68989;SDS011;56046;47.270;11.368;2023-04-25T14:00:57;1.37;;;0.60;;
68989;SDS011;56046;47.270;11.368;2023-04-25T14:03:22;1.40;;;0.70;;
68989;SDS011;56046;47.270;11.368;2023-04-25T14:05:47;2.33;;;1.10;;
68989;SDS011;56046;47.270;11.368;2023-04-25T14:08:13;1.40;;;0.80;;
68989;SDS011;56046;47.270;11.368;2023-04-25T14:10:38;1.10;;;0.83;;
68989;SDS011;56046;47.270;11.368;2023-04-25T14:13:04;1.40;;;0.80;;
68989;SDS011;56046;47.270;11.368;2023-04-25T14:15:30;1.90;;;1.00;;
68989;SDS011;56046;47.270;11.368;2023-04-25T14:17:56;1.30;;;0.80;;
68989;SDS011;56046;47.270;11.368;2023-04-25T14:20:21;2.70;;;0.80;;
68989;SDS011;56046;47.270;11.368;2023-04-25T14:22:48;1.10;;;0.90;;
68989;SDS011;56046;47.270;11.368;2023-04-25T14:25:14;2.83;;;0.90;;
68989;SDS011;56046;47.270;11.368;2023-04-25T14:27:39;1.67;;;0.77;;
68989;SDS011;56046;47.270;11.368;2023-04-25T14:30:05;2.60;;;0.80;;
68989;SDS011;56046;47.270;11.368;2023-04-25T14:32:31;1.30;;;0.70;;
68989;SDS011;56046;47.270;11.368;2023-04-25T14:34:57;2.23;;;1.30;;
68989;SDS011;56046;47.270;11.368;2023-04-25T14:37:22;2.03;;;0.90;;
68989;SDS011;56046;47.270;11.368;2023-04-25T14:39:47;1.70;;;0.93;;
68989;SDS011;56046;47.270;11.368;2023-04-25T14:42:13;1.65;;;0.77;;